createdAt,value
2023-03-03T00:01:54.146Z,40.90
2023-03-03T00:04:21.637Z,39.47
2023-03-03T00:06:48.787Z,39.80
2023-03-03T00:09:15.991Z,41.13
2023-03-03T00:11:43.362Z,41.30
2023-03-03T00:14:28.778Z,42.00
2023-03-03T00:16:57.384Z,39.00
2023-03-03T00:19:24.522Z,40.37
2023-03-03T00:21:52.934Z,41.97
2023-03-03T00:24:37.832Z,38.23
2023-03-03T00:27:27.708Z,39.93
2023-03-03T00:29:57.326Z,35.63
2023-03-03T00:32:26.471Z,35.53
2023-03-03T00:34:56.949Z,39.80
2023-03-03T00:37:31.288Z,72.10
2023-03-03T00:40:25.980Z,43.80
2023-03-03T00:42:55.889Z,33.83
2023-03-03T00:45:41.418Z,34.77
2023-03-03T00:48:25.615Z,41.40
2023-03-03T00:50:58.262Z,37.93
2023-03-03T00:53:28.764Z,40.13
2023-03-03T00:55:57.618Z,39.20
2023-03-03T00:58:27.498Z,39.40
2023-03-03T01:00:56.913Z,43.23
2023-03-03T01:03:31.271Z,41.83
2023-03-03T01:05:59.268Z,46.33
2023-03-03T01:08:26.623Z,41.83
2023-03-03T01:10:57.238Z,45.70
2023-03-03T01:13:28.481Z,47.47
2023-03-03T01:15:55.980Z,41.77
2023-03-03T01:18:23.209Z,41.60
2023-03-03T01:20:51.860Z,43.33
2023-03-03T01:23:18.950Z,46.17
2023-03-03T01:25:45.942Z,39.40
2023-03-03T01:28:12.978Z,46.70
2023-03-03T01:30:40.566Z,47.03
2023-03-03T01:33:08.851Z,44.60
2023-03-03T01:35:36.797Z,44.70
2023-03-03T01:38:04.191Z,47.23
2023-03-03T01:40:32.187Z,44.47
2023-03-03T01:43:01.187Z,45.60
2023-03-03T01:45:42.945Z,46.03
2023-03-03T01:48:18.798Z,42.40
2023-03-03T01:50:52.188Z,39.30
2023-03-03T01:53:39.207Z,44.50
2023-03-03T01:56:08.753Z,41.27
2023-03-03T01:59:05.410Z,43.17
2023-03-03T02:01:34.439Z,46.60
2023-03-03T02:04:02.195Z,44.10
2023-03-03T02:06:38.589Z,43.30
2023-03-03T02:09:17.091Z,43.00
2023-03-03T02:11:47.141Z,42.00
2023-03-03T02:14:14.378Z,40.13
2023-03-03T02:16:44.315Z,47.33
2023-03-03T02:19:38.164Z,43.63
2023-03-03T02:22:05.446Z,42.07
2023-03-03T02:24:41.777Z,42.00
2023-03-03T02:27:09.130Z,42.47
2023-03-03T02:29:36.587Z,43.83
2023-03-03T02:32:06.362Z,46.47
2023-03-03T02:34:48.595Z,43.30
2023-03-03T02:37:19.867Z,42.87
2023-03-03T02:39:47.452Z,43.97
2023-03-03T02:42:27.336Z,38.80
2023-03-03T02:44:57.626Z,42.90
2023-03-03T02:47:25.091Z,43.60
2023-03-03T02:49:52.444Z,39.63
2023-03-03T02:52:19.656Z,39.93
2023-03-03T02:54:48.102Z,37.60
2023-03-03T02:57:15.605Z,38.20
2023-03-03T02:59:42.700Z,38.47
2023-03-03T03:02:16.084Z,37.80
2023-03-03T03:04:43.345Z,40.50
2023-03-03T03:07:15.632Z,39.53
2023-03-03T03:09:42.991Z,35.70
2023-03-03T03:12:10.247Z,36.50
2023-03-03T03:14:37.643Z,42.87
2023-03-03T03:17:06.301Z,42.33
2023-03-03T03:19:36.308Z,43.03
2023-03-03T03:22:04.066Z,40.77
2023-03-03T03:24:33.984Z,42.53
2023-03-03T03:27:05.152Z,48.10
2023-03-03T03:29:32.780Z,41.13
2023-03-03T03:32:00.261Z,43.07
2023-03-03T03:34:27.546Z,38.80
2023-03-03T03:36:56.502Z,45.50
2023-03-03T03:39:26.571Z,49.90
2023-03-03T03:41:54.175Z,45.60
2023-03-03T03:44:21.739Z,43.10
2023-03-03T03:46:48.967Z,43.93
2023-03-03T03:49:16.517Z,41.47
2023-03-03T03:51:43.962Z,41.37
2023-03-03T03:54:14.901Z,41.47
2023-03-03T03:56:43.280Z,40.60
2023-03-03T03:59:10.906Z,45.70
2023-03-03T04:01:39.270Z,45.43
2023-03-03T04:04:06.967Z,40.17
2023-03-03T04:06:35.182Z,38.33
2023-03-03T04:09:04.128Z,40.17
2023-03-03T04:11:32.198Z,49.87
2023-03-03T04:13:59.976Z,43.77
2023-03-03T04:16:27.829Z,39.27
2023-03-03T04:18:55.358Z,38.63
2023-03-03T04:21:22.676Z,34.13
2023-03-03T04:23:51.709Z,38.00
2023-03-03T04:26:19.232Z,37.40
2023-03-03T04:28:47.992Z,34.33
2023-03-03T04:31:15.171Z,36.47
2023-03-03T04:33:42.669Z,41.13
2023-03-03T04:36:10.052Z,34.27
2023-03-03T04:38:38.345Z,36.97
2023-03-03T04:41:05.776Z,33.67
2023-03-03T04:43:36.539Z,41.37
2023-03-03T04:46:05.989Z,38.80
2023-03-03T04:48:33.954Z,35.77
2023-03-03T04:51:01.262Z,41.53
2023-03-03T04:53:28.560Z,36.93
2023-03-03T04:55:56.170Z,37.03
2023-03-03T04:58:24.299Z,38.30
2023-03-03T05:00:57.931Z,38.20
2023-03-03T05:03:27.920Z,37.33
2023-03-03T05:05:55.525Z,39.33
2023-03-03T05:08:22.695Z,39.07
2023-03-03T05:10:54.530Z,43.40
2023-03-03T05:13:21.919Z,35.57
2023-03-03T05:15:53.302Z,42.53
2023-03-03T05:18:20.774Z,38.50
2023-03-03T05:20:48.481Z,35.23
2023-03-03T05:23:17.167Z,38.23
2023-03-03T05:25:44.636Z,38.97
2023-03-03T05:28:12.080Z,36.90
2023-03-03T05:30:39.316Z,40.27
2023-03-03T05:33:07.030Z,49.10
2023-03-03T05:35:35.251Z,42.03
2023-03-03T05:38:05.415Z,45.40
2023-03-03T05:40:33.116Z,38.63
2023-03-03T05:43:00.989Z,43.83
2023-03-03T05:45:28.175Z,44.13
2023-03-03T05:47:55.866Z,42.67
2023-03-03T05:50:24.017Z,51.73
2023-03-03T05:52:52.224Z,43.07
2023-03-03T05:55:20.102Z,42.07
2023-03-03T05:57:47.808Z,53.47
2023-03-03T06:00:19.204Z,41.20
2023-03-03T06:02:46.825Z,43.07
2023-03-03T06:05:14.157Z,38.40
2023-03-03T06:07:41.358Z,42.17
2023-03-03T06:10:09.271Z,41.23
2023-03-03T06:12:39.565Z,40.20
2023-03-03T06:15:08.083Z,43.70
2023-03-03T06:17:35.679Z,41.50
2023-03-03T06:20:04.367Z,43.20
2023-03-03T06:22:31.648Z,44.70
2023-03-03T06:25:02.264Z,41.23
2023-03-03T06:27:33.590Z,42.83
2023-03-03T06:30:00.910Z,42.07
2023-03-03T06:32:37.490Z,41.87
2023-03-03T06:35:07.039Z,39.70
2023-03-03T06:37:34.890Z,43.50
2023-03-03T06:40:06.351Z,41.73
2023-03-03T06:42:36.741Z,46.70
2023-03-03T06:45:43.460Z,40.07
2023-03-03T06:48:10.724Z,37.97
2023-03-03T06:50:39.747Z,42.97
2023-03-03T06:53:16.278Z,44.17
2023-03-03T06:55:45.184Z,44.70
2023-03-03T06:58:15.909Z,44.10
2023-03-03T07:00:45.416Z,43.33
2023-03-03T07:03:19.126Z,44.10
2023-03-03T07:05:46.844Z,46.83
2023-03-03T07:08:17.758Z,46.27
2023-03-03T07:10:46.111Z,46.50
2023-03-03T07:13:34.405Z,46.40
2023-03-03T07:16:12.139Z,44.87
2023-03-03T07:18:54.620Z,43.93
2023-03-03T07:21:27.701Z,41.53
2023-03-03T07:23:57.296Z,41.13
2023-03-03T07:26:33.064Z,39.57
2023-03-03T07:29:02.099Z,41.10
2023-03-03T07:31:36.823Z,40.80
2023-03-03T07:34:37.243Z,39.30
2023-03-03T07:37:18.931Z,43.00
2023-03-03T07:39:50.682Z,38.60
2023-03-03T07:42:29.362Z,42.77
2023-03-03T07:45:30.332Z,36.83
2023-03-03T07:48:22.597Z,35.13
2023-03-03T07:50:50.298Z,38.63
2023-03-03T07:53:30.094Z,35.73
2023-03-03T07:55:57.360Z,36.33
2023-03-03T07:58:43.958Z,37.13
2023-03-03T08:01:40.120Z,35.13
2023-03-03T08:04:21.210Z,34.50
2023-03-03T08:06:58.076Z,32.10
2023-03-03T08:09:36.921Z,33.10
2023-03-03T08:12:07.104Z,33.73
2023-03-03T08:14:36.974Z,34.20
2023-03-03T08:17:40.137Z,35.17
2023-03-03T08:20:35.153Z,37.03
2023-03-03T08:23:02.481Z,34.17
2023-03-03T08:25:29.974Z,34.67
2023-03-03T08:27:57.153Z,33.60
2023-03-03T08:30:24.733Z,37.67
2023-03-03T08:32:52.127Z,37.53
2023-03-03T08:35:19.577Z,38.37
2023-03-03T08:37:49.407Z,34.47
2023-03-03T08:40:16.792Z,34.90
2023-03-03T08:42:44.119Z,35.17
2023-03-03T08:45:11.549Z,36.40
2023-03-03T08:47:39.512Z,35.67
2023-03-03T08:50:07.459Z,38.17
2023-03-03T08:52:34.822Z,36.37
2023-03-03T08:55:02.197Z,38.13
2023-03-03T08:57:30.712Z,40.03
2023-03-03T08:59:58.963Z,38.00
2023-03-03T09:02:26.454Z,34.30
2023-03-03T09:04:54.102Z,38.30
2023-03-03T09:07:21.183Z,38.27
2023-03-03T09:09:49.561Z,37.50
2023-03-03T09:12:28.840Z,31.93
2023-03-03T09:15:03.430Z,34.20
2023-03-03T09:17:34.256Z,31.93
2023-03-03T09:20:24.571Z,37.67
2023-03-03T09:22:51.914Z,37.93
2023-03-03T09:25:34.334Z,36.90
2023-03-03T09:28:03.344Z,65.13
2023-03-03T09:30:40.286Z,42.63
2023-03-03T09:33:40.773Z,39.27
2023-03-03T09:36:23.760Z,44.33
2023-03-03T09:38:51.370Z,46.17
2023-03-03T09:41:45.941Z,46.43
2023-03-03T09:44:26.282Z,41.93
2023-03-03T09:47:05.585Z,40.10
2023-03-03T09:49:36.416Z,40.67
2023-03-03T09:52:26.698Z,37.13
2023-03-03T09:55:16.203Z,41.60
2023-03-03T09:58:10.807Z,41.70
2023-03-03T10:01:07.775Z,41.27
2023-03-03T10:03:54.540Z,40.57
2023-03-03T10:06:48.629Z,40.23
2023-03-03T10:09:38.033Z,40.80
2023-03-03T10:12:15.866Z,40.00
2023-03-03T10:15:03.432Z,39.83
2023-03-03T10:17:46.575Z,36.53
2023-03-03T10:20:49.744Z,37.20
2023-03-03T10:23:38.836Z,36.20
2023-03-03T10:26:45.818Z,39.07
2023-03-03T10:29:37.165Z,43.13
2023-03-03T10:32:27.095Z,36.90
2023-03-03T10:35:25.228Z,37.37
2023-03-03T10:38:14.948Z,36.77
2023-03-03T10:40:57.505Z,35.70
2023-03-03T10:43:52.562Z,38.17
2023-03-03T10:46:35.570Z,33.20
2023-03-03T10:49:08.676Z,35.97
2023-03-03T10:52:08.743Z,31.40
2023-03-03T10:54:47.924Z,37.37
2023-03-03T10:57:41.636Z,45.00
2023-03-03T11:00:24.226Z,32.37
2023-03-03T11:03:29.335Z,61.73
2023-03-03T11:06:05.376Z,31.27
2023-03-03T11:08:41.763Z,34.63
2023-03-03T11:11:36.554Z,31.80
2023-03-03T11:14:13.219Z,125.63
2023-03-03T11:16:49.948Z,184.47
2023-03-03T11:19:20.999Z,35.70
2023-03-03T11:22:11.262Z,59.93
2023-03-03T11:24:56.745Z,72.80
2023-03-03T11:27:39.364Z,36.03
2023-03-03T11:30:32.851Z,43.90
2023-03-03T11:33:05.326Z,31.10
2023-03-03T11:35:44.733Z,29.73
2023-03-03T11:38:36.742Z,22.00
2023-03-03T11:41:33.473Z,29.70
2023-03-03T11:44:27.513Z,92.10
2023-03-03T11:47:41.420Z,21.87
2023-03-03T11:50:35.013Z,35.20
2023-03-03T11:53:14.192Z,29.47
2023-03-03T11:55:45.536Z,23.83
2023-03-03T11:58:42.397Z,24.70
2023-03-03T12:01:20.931Z,23.50
2023-03-03T12:03:58.279Z,22.77
2023-03-03T12:06:34.294Z,20.43
2023-03-03T12:09:19.979Z,19.80
2023-03-03T12:11:49.879Z,21.60
2023-03-03T12:14:55.877Z,22.93
2023-03-03T12:17:55.867Z,20.10
2023-03-03T12:20:48.375Z,18.83
2023-03-03T12:23:30.470Z,21.13
2023-03-03T12:26:20.592Z,22.23
2023-03-03T12:29:00.172Z,23.17
2023-03-03T12:31:39.595Z,25.07
2023-03-03T12:34:16.314Z,26.57
2023-03-03T12:36:46.369Z,23.60
2023-03-03T12:39:33.815Z,22.87
2023-03-03T12:42:13.335Z,22.20
2023-03-03T12:45:02.056Z,22.93
2023-03-03T12:47:50.996Z,26.83
2023-03-03T12:50:27.394Z,27.13
2023-03-03T12:53:13.034Z,22.90
2023-03-03T12:55:54.486Z,21.63
2023-03-03T12:58:30.813Z,21.63
2023-03-03T13:01:01.319Z,24.80
2023-03-03T13:03:56.246Z,22.57
2023-03-03T13:06:35.061Z,19.70
2023-03-03T13:09:29.820Z,22.13
2023-03-03T13:12:18.394Z,22.27
2023-03-03T13:14:57.644Z,22.10
2023-03-03T13:17:34.395Z,26.07
2023-03-03T13:20:05.036Z,21.20
2023-03-03T13:22:40.262Z,23.37
2023-03-03T13:25:39.013Z,22.17
2023-03-03T13:28:42.934Z,19.00
2023-03-03T13:31:22.266Z,21.30
2023-03-03T13:33:58.421Z,21.73
2023-03-03T13:36:36.361Z,20.23
2023-03-03T13:39:32.685Z,21.20
2023-03-03T13:42:12.406Z,21.07
2023-03-03T13:44:42.884Z,23.83
2023-03-03T13:47:37.582Z,21.47
2023-03-03T13:50:19.260Z,20.10
2023-03-03T13:53:27.579Z,21.33
2023-03-03T13:56:24.121Z,16.80
2023-03-03T13:59:12.670Z,17.40
2023-03-03T14:01:55.623Z,16.47
2023-03-03T14:04:35.107Z,18.27
2023-03-03T14:07:34.476Z,15.70
2023-03-03T14:10:26.675Z,20.33
2023-03-03T14:13:16.696Z,22.17
2023-03-03T14:16:08.465Z,16.07
2023-03-03T14:19:00.937Z,18.07
2023-03-03T14:21:40.832Z,16.43
2023-03-03T14:24:25.466Z,19.07
2023-03-03T14:26:56.473Z,21.67
2023-03-03T14:29:33.068Z,17.40
2023-03-03T14:32:02.960Z,14.10
2023-03-03T14:34:41.467Z,12.87
2023-03-03T14:37:42.375Z,16.23
2023-03-03T14:40:09.707Z,16.67
2023-03-03T14:43:26.372Z,15.83
2023-03-03T14:45:55.309Z,13.00
2023-03-03T14:48:27.766Z,13.70
2023-03-03T14:51:04.584Z,15.03
2023-03-03T14:53:34.468Z,15.67
2023-03-03T14:56:22.948Z,13.90
2023-03-03T14:58:52.922Z,13.67
2023-03-03T15:01:33.658Z,17.57
2023-03-03T15:04:16.494Z,13.73
2023-03-03T15:06:49.493Z,11.70
2023-03-03T15:09:45.758Z,15.80
2023-03-03T15:12:26.063Z,13.50
2023-03-03T15:15:11.829Z,13.03
2023-03-03T15:17:50.253Z,14.83
2023-03-03T15:20:35.936Z,13.43
2023-03-03T15:23:28.794Z,10.50
2023-03-03T15:26:09.775Z,11.07
2023-03-03T15:28:55.906Z,13.50
2023-03-03T15:31:30.569Z,12.10
2023-03-03T15:34:00.790Z,12.67
2023-03-03T15:36:47.886Z,15.60
2023-03-03T15:39:39.692Z,14.07
2023-03-03T15:42:32.438Z,12.00
2023-03-03T15:45:23.064Z,13.73
2023-03-03T15:48:34.736Z,15.10
2023-03-03T15:51:21.018Z,14.83
2023-03-03T15:54:12.822Z,15.93
2023-03-03T15:56:50.343Z,15.80
2023-03-03T15:59:45.365Z,16.57
2023-03-03T16:02:30.715Z,14.33
2023-03-03T16:05:16.580Z,11.37
2023-03-03T16:08:17.707Z,9.67
2023-03-03T16:11:08.436Z,12.43
2023-03-03T16:13:59.784Z,8.80
2023-03-03T16:16:43.406Z,6.53
2023-03-03T16:19:46.409Z,6.60
2023-03-03T16:22:22.352Z,5.43
2023-03-03T16:25:16.145Z,6.47
2023-03-03T16:27:58.549Z,5.40
2023-03-03T16:30:33.231Z,5.27
2023-03-03T16:33:12.999Z,4.30
2023-03-03T16:35:48.331Z,4.07
2023-03-03T16:38:50.375Z,6.13
2023-03-03T16:41:58.755Z,4.03
2023-03-03T16:44:44.317Z,7.23
2023-03-03T16:47:29.496Z,4.07
2023-03-03T16:50:24.289Z,5.23
2023-03-03T16:53:06.161Z,4.93
2023-03-03T16:55:45.719Z,5.53
2023-03-03T16:59:04.710Z,4.43
2023-03-03T17:02:03.988Z,5.07
2023-03-03T17:05:13.885Z,6.20
2023-03-03T17:07:51.104Z,5.20
2023-03-03T17:10:30.380Z,4.20
2023-03-03T17:13:20.302Z,6.73
2023-03-03T17:16:14.876Z,5.67
2023-03-03T17:18:42.287Z,6.30
2023-03-03T17:21:45.588Z,4.80
2023-03-03T17:24:35.310Z,7.03
2023-03-03T17:27:12.973Z,3.90
2023-03-03T17:29:55.619Z,6.30
2023-03-03T17:32:38.114Z,3.93
2023-03-03T17:35:24.206Z,4.80
2023-03-03T17:38:27.083Z,4.37
2023-03-03T17:41:05.202Z,6.40
2023-03-03T17:43:46.225Z,6.43
2023-03-03T17:46:29.831Z,4.77
2023-03-03T17:49:18.445Z,4.77
2023-03-03T17:52:12.198Z,8.37
2023-03-03T17:55:07.469Z,8.87
2023-03-03T17:58:04.291Z,7.10
2023-03-03T18:00:38.056Z,7.23
2023-03-03T18:03:44.290Z,5.53
2023-03-03T18:06:37.040Z,6.47
2023-03-03T18:09:22.780Z,4.57
2023-03-03T18:12:19.623Z,6.60
2023-03-03T18:15:11.272Z,7.20
2023-03-03T18:17:47.821Z,8.63
2023-03-03T18:21:01.681Z,8.67
2023-03-03T18:23:35.597Z,8.03
2023-03-03T18:26:10.068Z,5.27
2023-03-03T18:28:49.639Z,6.67
2023-03-03T18:31:22.129Z,5.93
2023-03-03T18:34:20.559Z,4.93
2023-03-03T18:36:59.035Z,6.17
2023-03-03T18:39:49.086Z,4.80
2023-03-03T18:42:16.377Z,6.00
2023-03-03T18:44:44.715Z,7.07
2023-03-03T18:47:15.898Z,13.03
2023-03-03T18:49:57.237Z,6.57
2023-03-03T18:52:33.151Z,5.87
2023-03-03T18:55:22.756Z,5.87
2023-03-03T18:58:42.155Z,5.10
2023-03-03T19:01:35.223Z,6.47
2023-03-03T19:04:16.860Z,7.33
2023-03-03T19:06:44.727Z,6.17
2023-03-03T19:09:18.007Z,8.30
2023-03-03T19:11:54.470Z,6.47
2023-03-03T19:14:39.036Z,6.63
2023-03-03T19:17:18.805Z,7.40
2023-03-03T19:20:08.045Z,7.50
2023-03-03T19:23:08.402Z,9.03
2023-03-03T19:25:38.205Z,7.47
2023-03-03T19:28:05.298Z,9.20
2023-03-03T19:31:17.749Z,8.87
2023-03-03T19:33:55.764Z,8.43
2023-03-03T19:37:07.168Z,9.47
2023-03-03T19:39:52.804Z,10.93
2023-03-03T19:42:42.154Z,8.40
2023-03-03T19:45:31.159Z,10.00
2023-03-03T19:48:14.712Z,9.17
2023-03-03T19:51:13.108Z,7.40
2023-03-03T19:53:58.948Z,9.47
2023-03-03T19:56:52.892Z,7.57
2023-03-03T19:59:57.990Z,8.47
2023-03-03T20:02:33.241Z,9.80
2023-03-03T20:05:38.001Z,8.33
2023-03-03T20:08:50.165Z,6.93
2023-03-03T20:11:46.508Z,10.07
2023-03-03T20:14:38.486Z,8.43
2023-03-03T20:17:25.004Z,8.17
2023-03-03T20:19:59.926Z,12.27
2023-03-03T20:22:43.534Z,10.47
2023-03-03T20:25:24.962Z,9.73
2023-03-03T20:28:06.864Z,20.90
2023-03-03T20:30:52.197Z,13.53
2023-03-03T20:33:40.371Z,15.20
2023-03-03T20:36:16.291Z,16.63
2023-03-03T20:38:57.482Z,11.23
2023-03-03T20:41:46.282Z,16.67
2023-03-03T20:44:34.906Z,14.00
2023-03-03T20:47:25.997Z,13.30
2023-03-03T20:50:12.239Z,9.77
2023-03-03T20:52:55.790Z,11.83
2023-03-03T20:55:42.008Z,9.87
2023-03-03T20:58:28.211Z,13.90
2023-03-03T21:01:04.592Z,14.87
2023-03-03T21:03:42.198Z,12.47
2023-03-03T21:06:15.721Z,15.80
2023-03-03T21:08:54.891Z,14.10
2023-03-03T21:11:42.661Z,24.87
2023-03-03T21:14:27.984Z,9.83
2023-03-03T21:16:58.478Z,10.47
2023-03-03T21:19:28.797Z,18.33
2023-03-03T21:21:56.826Z,12.43
2023-03-03T21:24:49.183Z,16.90
2023-03-03T21:27:28.351Z,12.83
2023-03-03T21:30:05.961Z,16.20
2023-03-03T21:32:41.581Z,11.13
2023-03-03T21:35:13.128Z,17.03
2023-03-03T21:37:57.522Z,16.63
2023-03-03T21:40:27.806Z,14.47
2023-03-03T21:42:57.971Z,17.23
2023-03-03T21:45:26.392Z,21.33
2023-03-03T21:47:55.519Z,15.13
2023-03-03T21:50:23.108Z,16.53
2023-03-03T21:52:50.407Z,19.87
2023-03-03T21:55:17.688Z,17.17
2023-03-03T21:57:45.054Z,16.30
2023-03-03T22:00:12.778Z,16.60
2023-03-03T22:02:39.883Z,15.80
2023-03-03T22:05:08.051Z,16.97
2023-03-03T22:07:35.635Z,13.23
2023-03-03T22:10:03.204Z,16.03
2023-03-03T22:12:31.331Z,16.13
2023-03-03T22:14:58.341Z,13.33
2023-03-03T22:17:25.881Z,18.47
2023-03-03T22:19:53.674Z,10.90
2023-03-03T22:22:20.968Z,16.40
2023-03-03T22:24:48.218Z,12.53
2023-03-03T22:27:16.048Z,14.20
2023-03-03T22:29:43.539Z,12.90
2023-03-03T22:32:11.957Z,15.43
2023-03-03T22:34:42.440Z,12.60
2023-03-03T22:37:10.255Z,13.37
2023-03-03T22:39:42.672Z,16.70
2023-03-03T22:42:12.740Z,16.20
2023-03-03T22:44:40.396Z,14.33
2023-03-03T22:47:07.655Z,15.40
2023-03-03T22:49:34.751Z,16.77
2023-03-03T22:52:02.929Z,17.00
2023-03-03T22:54:30.063Z,13.90
2023-03-03T22:56:57.377Z,11.47
2023-03-03T22:59:24.756Z,13.00
2023-03-03T23:01:52.052Z,17.33
2023-03-03T23:04:19.220Z,17.10
2023-03-03T23:06:46.308Z,9.97
2023-03-03T23:09:13.576Z,16.17
2023-03-03T23:11:44.187Z,11.23
2023-03-03T23:14:11.780Z,14.80
2023-03-03T23:16:38.752Z,13.53
2023-03-03T23:19:05.919Z,15.63
2023-03-03T23:21:32.873Z,20.73
2023-03-03T23:24:00.231Z,16.27
2023-03-03T23:26:27.267Z,12.67
2023-03-03T23:28:54.615Z,14.73
2023-03-03T23:31:21.849Z,15.27
2023-03-03T23:33:49.112Z,13.53
2023-03-03T23:36:16.330Z,14.77
2023-03-03T23:38:43.800Z,17.70
2023-03-03T23:41:10.775Z,13.43
2023-03-03T23:43:37.901Z,19.13
2023-03-03T23:46:05.082Z,19.37
2023-03-03T23:48:32.678Z,15.67
2023-03-03T23:51:01.502Z,14.80
2023-03-03T23:53:29.039Z,16.53
2023-03-03T23:55:56.087Z,16.27
2023-03-03T23:58:23.344Z,15.37
